sensor_id;sensor_type;location;lat;lon;timestamp;P1;durP1;ratioP1;P2;durP2;ratioP2
12407;SDS011;6268;48.188;17.134;2024-01-07T00:01:47;6.00;;;5.50;;
12407;SDS011;6268;48.188;17.134;2024-01-07T00:04:16;5.82;;;5.22;;
12407;SDS011;6268;48.188;17.134;2024-01-07T00:06:45;5.43;;;5.03;;
12407;SDS011;6268;48.188;17.134;2024-01-07T00:09:15;6.78;;;6.22;;
12407;SDS011;6268;48.188;17.134;2024-01-07T00:11:43;7.07;;;6.18;;
12407;SDS011;6268;48.188;17.134;2024-01-07T00:14:12;5.93;;;5.53;;
12407;SDS011;6268;48.188;17.134;2024-01-07T00:16:42;5.57;;;5.18;;
12407;SDS011;6268;48.188;17.134;2024-01-07T00:19:12;5.72;;;4.32;;
12407;SDS011;6268;48.188;17.134;2024-01-07T00:21:41;4.93;;;4.43;;
12407;SDS011;6268;48.188;17.134;2024-01-07T00:24:10;5.88;;;5.40;;
12407;SDS011;6268;48.188;17.134;2024-01-07T00:26:38;5.95;;;5.45;;
12407;SDS011;6268;48.188;17.134;2024-01-07T00:29:07;6.40;;;5.88;;
12407;SDS011;6268;48.188;17.134;2024-01-07T00:31:35;5.15;;;4.60;;
12407;SDS011;6268;48.188;17.134;2024-01-07T00:34:04;6.20;;;5.63;;
12407;SDS011;6268;48.188;17.134;2024-01-07T00:36:34;5.47;;;5.07;;
12407;SDS011;6268;48.188;17.134;2024-01-07T00:39:02;4.55;;;4.10;;
12407;SDS011;6268;48.188;17.134;2024-01-07T00:41:31;5.53;;;4.20;;
12407;SDS011;6268;48.188;17.134;2024-01-07T00:44:01;5.72;;;5.22;;
12407;SDS011;6268;48.188;17.134;2024-01-07T00:46:29;5.70;;;4.22;;
12407;SDS011;6268;48.188;17.134;2024-01-07T00:48:58;4.60;;;4.20;;
12407;SDS011;6268;48.188;17.134;2024-01-07T00:51:26;5.20;;;4.90;;
12407;SDS011;6268;48.188;17.134;2024-01-07T00:53:56;4.57;;;4.18;;
12407;SDS011;6268;48.188;17.134;2024-01-07T00:56:25;4.47;;;3.90;;
12407;SDS011;6268;48.188;17.134;2024-01-07T00:58:54;4.17;;;3.77;;
12407;SDS011;6268;48.188;17.134;2024-01-07T01:01:22;4.30;;;3.90;;
12407;SDS011;6268;48.188;17.134;2024-01-07T01:03:51;4.47;;;4.07;;
12407;SDS011;6268;48.188;17.134;2024-01-07T01:06:20;4.43;;;4.00;;
12407;SDS011;6268;48.188;17.134;2024-01-07T01:08:48;5.27;;;3.93;;
12407;SDS011;6268;48.188;17.134;2024-01-07T01:11:18;4.47;;;4.07;;
12407;SDS011;6268;48.188;17.134;2024-01-07T01:13:47;4.10;;;3.70;;
12407;SDS011;6268;48.188;17.134;2024-01-07T01:16:15;4.97;;;4.57;;
12407;SDS011;6268;48.188;17.134;2024-01-07T01:18:47;4.80;;;4.50;;
12407;SDS011;6268;48.188;17.134;2024-01-07T01:21:16;4.78;;;4.30;;
12407;SDS011;6268;48.188;17.134;2024-01-07T01:23:45;5.33;;;4.83;;
12407;SDS011;6268;48.188;17.134;2024-01-07T01:26:14;4.80;;;4.50;;
12407;SDS011;6268;48.188;17.134;2024-01-07T01:28:44;5.27;;;4.83;;
12407;SDS011;6268;48.188;17.134;2024-01-07T01:31:13;4.07;;;3.67;;
12407;SDS011;6268;48.188;17.134;2024-01-07T01:33:42;4.30;;;3.73;;
12407;SDS011;6268;48.188;17.134;2024-01-07T01:36:11;4.43;;;4.13;;
12407;SDS011;6268;48.188;17.134;2024-01-07T01:38:39;4.53;;;4.20;;
12407;SDS011;6268;48.188;17.134;2024-01-07T01:41:08;3.83;;;3.53;;
12407;SDS011;6268;48.188;17.134;2024-01-07T01:43:36;3.57;;;3.33;;
12407;SDS011;6268;48.188;17.134;2024-01-07T01:46:06;3.63;;;3.28;;
12407;SDS011;6268;48.188;17.134;2024-01-07T01:48:35;3.67;;;3.37;;
12407;SDS011;6268;48.188;17.134;2024-01-07T01:51:04;3.60;;;3.30;;
12407;SDS011;6268;48.188;17.134;2024-01-07T01:53:33;4.63;;;3.37;;
12407;SDS011;6268;48.188;17.134;2024-01-07T01:56:02;3.80;;;3.50;;
12407;SDS011;6268;48.188;17.134;2024-01-07T01:58:31;3.93;;;3.63;;
12407;SDS011;6268;48.188;17.134;2024-01-07T02:01:00;4.07;;;3.67;;
12407;SDS011;6268;48.188;17.134;2024-01-07T02:03:31;3.63;;;3.27;;
12407;SDS011;6268;48.188;17.134;2024-01-07T02:05:59;3.90;;;3.40;;
12407;SDS011;6268;48.188;17.134;2024-01-07T02:08:28;3.53;;;3.27;;
12407;SDS011;6268;48.188;17.134;2024-01-07T02:10:57;4.10;;;3.70;;
12407;SDS011;6268;48.188;17.134;2024-01-07T02:13:26;4.20;;;3.80;;
12407;SDS011;6268;48.188;17.134;2024-01-07T02:15:54;3.93;;;3.27;;
12407;SDS011;6268;48.188;17.134;2024-01-07T02:18:23;3.63;;;3.33;;
12407;SDS011;6268;48.188;17.134;2024-01-07T02:20:53;3.87;;;3.57;;
12407;SDS011;6268;48.188;17.134;2024-01-07T02:23:21;4.10;;;3.70;;
12407;SDS011;6268;48.188;17.134;2024-01-07T02:25:51;3.67;;;3.37;;
12407;SDS011;6268;48.188;17.134;2024-01-07T02:28:20;4.40;;;4.00;;
12407;SDS011;6268;48.188;17.134;2024-01-07T02:30:49;4.23;;;3.83;;
12407;SDS011;6268;48.188;17.134;2024-01-07T02:33:17;3.87;;;3.57;;
12407;SDS011;6268;48.188;17.134;2024-01-07T02:35:46;3.30;;;3.10;;
12407;SDS011;6268;48.188;17.134;2024-01-07T02:38:14;4.22;;;3.92;;
12407;SDS011;6268;48.188;17.134;2024-01-07T02:40:43;3.90;;;3.60;;
12407;SDS011;6268;48.188;17.134;2024-01-07T02:43:13;4.30;;;3.97;;
12407;SDS011;6268;48.188;17.134;2024-01-07T02:45:42;4.10;;;3.80;;
12407;SDS011;6268;48.188;17.134;2024-01-07T02:48:10;3.90;;;3.60;;
12407;SDS011;6268;48.188;17.134;2024-01-07T02:50:39;3.80;;;3.50;;
12407;SDS011;6268;48.188;17.134;2024-01-07T02:53:07;3.73;;;3.43;;
12407;SDS011;6268;48.188;17.134;2024-01-07T02:55:37;4.50;;;3.93;;
12407;SDS011;6268;48.188;17.134;2024-01-07T02:58:06;4.53;;;4.17;;
12407;SDS011;6268;48.188;17.134;2024-01-07T03:00:35;4.57;;;4.00;;
12407;SDS011;6268;48.188;17.134;2024-01-07T03:03:04;5.93;;;5.53;;
12407;SDS011;6268;48.188;17.134;2024-01-07T03:05:33;4.60;;;4.20;;
12407;SDS011;6268;48.188;17.134;2024-01-07T03:08:01;5.10;;;4.60;;
12407;SDS011;6268;48.188;17.134;2024-01-07T03:10:30;4.70;;;4.20;;
12407;SDS011;6268;48.188;17.134;2024-01-07T03:12:59;4.83;;;4.37;;
12407;SDS011;6268;48.188;17.134;2024-01-07T03:15:28;5.13;;;4.63;;
12407;SDS011;6268;48.188;17.134;2024-01-07T03:17:58;5.30;;;4.83;;
12407;SDS011;6268;48.188;17.134;2024-01-07T03:20:26;5.13;;;4.63;;
12407;SDS011;6268;48.188;17.134;2024-01-07T03:22:55;5.87;;;5.30;;
12407;SDS011;6268;48.188;17.134;2024-01-07T03:25:23;5.17;;;4.77;;
12407;SDS011;6268;48.188;17.134;2024-01-07T03:27:52;5.73;;;5.23;;
12407;SDS011;6268;48.188;17.134;2024-01-07T03:30:20;5.40;;;4.73;;
12407;SDS011;6268;48.188;17.134;2024-01-07T03:32:49;4.87;;;4.47;;
12407;SDS011;6268;48.188;17.134;2024-01-07T03:35:19;7.83;;;5.03;;
12407;SDS011;6268;48.188;17.134;2024-01-07T03:37:48;6.33;;;5.70;;
12407;SDS011;6268;48.188;17.134;2024-01-07T03:40:17;5.40;;;4.90;;
12407;SDS011;6268;48.188;17.134;2024-01-07T03:42:45;6.23;;;5.63;;
12407;SDS011;6268;48.188;17.134;2024-01-07T03:45:14;6.20;;;5.30;;
12407;SDS011;6268;48.188;17.134;2024-01-07T03:47:43;6.57;;;5.97;;
12407;SDS011;6268;48.188;17.134;2024-01-07T03:50:11;6.97;;;5.43;;
12407;SDS011;6268;48.188;17.134;2024-01-07T03:52:41;6.10;;;5.53;;
12407;SDS011;6268;48.188;17.134;2024-01-07T03:55:10;8.33;;;5.80;;
12407;SDS011;6268;48.188;17.134;2024-01-07T03:57:38;8.57;;;6.67;;
12407;SDS011;6268;48.188;17.134;2024-01-07T04:00:07;6.83;;;6.13;;
12407;SDS011;6268;48.188;17.134;2024-01-07T04:02:37;7.43;;;6.43;;
12407;SDS011;6268;48.188;17.134;2024-01-07T04:05:06;6.83;;;6.13;;
12407;SDS011;6268;48.188;17.134;2024-01-07T04:07:35;7.20;;;6.27;;
12407;SDS011;6268;48.188;17.134;2024-01-07T04:10:06;7.00;;;6.10;;
12407;SDS011;6268;48.188;17.134;2024-01-07T04:12:36;7.37;;;6.03;;
12407;SDS011;6268;48.188;17.134;2024-01-07T04:15:05;7.00;;;6.37;;
12407;SDS011;6268;48.188;17.134;2024-01-07T04:17:34;7.63;;;6.83;;
12407;SDS011;6268;48.188;17.134;2024-01-07T04:20:02;7.90;;;7.10;;
12407;SDS011;6268;48.188;17.134;2024-01-07T04:22:31;7.40;;;6.47;;
12407;SDS011;6268;48.188;17.134;2024-01-07T04:25:00;8.77;;;7.13;;
12407;SDS011;6268;48.188;17.134;2024-01-07T04:27:30;7.07;;;6.10;;
12407;SDS011;6268;48.188;17.134;2024-01-07T04:29:58;8.80;;;6.83;;
12407;SDS011;6268;48.188;17.134;2024-01-07T04:32:27;7.60;;;6.57;;
12407;SDS011;6268;48.188;17.134;2024-01-07T04:34:56;8.47;;;6.53;;
12407;SDS011;6268;48.188;17.134;2024-01-07T04:37:25;7.53;;;6.83;;
12407;SDS011;6268;48.188;17.134;2024-01-07T04:39:53;7.23;;;6.53;;
12407;SDS011;6268;48.188;17.134;2024-01-07T04:42:22;8.40;;;7.20;;
12407;SDS011;6268;48.188;17.134;2024-01-07T04:44:52;7.67;;;6.87;;
12407;SDS011;6268;48.188;17.134;2024-01-07T04:47:27;7.60;;;6.90;;
12407;SDS011;6268;48.188;17.134;2024-01-07T04:49:57;7.93;;;7.07;;
12407;SDS011;6268;48.188;17.134;2024-01-07T04:52:26;9.13;;;6.83;;
12407;SDS011;6268;48.188;17.134;2024-01-07T04:54:54;7.77;;;6.50;;
12407;SDS011;6268;48.188;17.134;2024-01-07T04:57:23;7.50;;;6.73;;
12407;SDS011;6268;48.188;17.134;2024-01-07T04:59:53;8.03;;;6.50;;
12407;SDS011;6268;48.188;17.134;2024-01-07T05:02:22;9.93;;;7.17;;
12407;SDS011;6268;48.188;17.134;2024-01-07T05:04:51;7.80;;;7.00;;
12407;SDS011;6268;48.188;17.134;2024-01-07T05:07:19;7.53;;;6.73;;
12407;SDS011;6268;48.188;17.134;2024-01-07T05:09:48;8.73;;;6.87;;
12407;SDS011;6268;48.188;17.134;2024-01-07T05:12:17;7.97;;;7.10;;
12407;SDS011;6268;48.188;17.134;2024-01-07T05:14:45;8.73;;;7.03;;
12407;SDS011;6268;48.188;17.134;2024-01-07T05:17:15;9.93;;;7.37;;
12407;SDS011;6268;48.188;17.134;2024-01-07T05:19:44;9.13;;;7.13;;
12407;SDS011;6268;48.188;17.134;2024-01-07T05:22:13;8.27;;;7.27;;
12407;SDS011;6268;48.188;17.134;2024-01-07T05:24:41;8.33;;;7.13;;
12407;SDS011;6268;48.188;17.134;2024-01-07T05:27:10;7.53;;;6.30;;
12407;SDS011;6268;48.188;17.134;2024-01-07T05:29:38;8.10;;;7.27;;
12407;SDS011;6268;48.188;17.134;2024-01-07T05:32:07;8.67;;;7.07;;
12407;SDS011;6268;48.188;17.134;2024-01-07T05:34:37;7.90;;;7.03;;
12407;SDS011;6268;48.188;17.134;2024-01-07T05:37:06;9.80;;;8.00;;
12407;SDS011;6268;48.188;17.134;2024-01-07T05:39:34;7.87;;;7.07;;
12407;SDS011;6268;48.188;17.134;2024-01-07T05:42:03;8.27;;;7.23;;
12407;SDS011;6268;48.188;17.134;2024-01-07T05:44:31;8.17;;;7.23;;
12407;SDS011;6268;48.188;17.134;2024-01-07T05:47:00;8.17;;;7.10;;
12407;SDS011;6268;48.188;17.134;2024-01-07T05:49:29;9.47;;;7.93;;
12407;SDS011;6268;48.188;17.134;2024-01-07T05:51:59;8.17;;;7.00;;
12407;SDS011;6268;48.188;17.134;2024-01-07T05:54:28;9.33;;;7.50;;
12407;SDS011;6268;48.188;17.134;2024-01-07T05:56:57;9.67;;;7.50;;
12407;SDS011;6268;48.188;17.134;2024-01-07T05:59:26;8.43;;;6.93;;
12407;SDS011;6268;48.188;17.134;2024-01-07T06:01:57;8.40;;;6.87;;
12407;SDS011;6268;48.188;17.134;2024-01-07T06:04:26;8.33;;;7.50;;
12407;SDS011;6268;48.188;17.134;2024-01-07T06:06:55;9.30;;;7.07;;
12407;SDS011;6268;48.188;17.134;2024-01-07T06:09:27;7.17;;;6.47;;
12407;SDS011;6268;48.188;17.134;2024-01-07T06:11:55;8.27;;;7.37;;
12407;SDS011;6268;48.188;17.134;2024-01-07T06:14:24;8.20;;;6.83;;
12407;SDS011;6268;48.188;17.134;2024-01-07T06:16:52;10.10;;;7.17;;
12407;SDS011;6268;48.188;17.134;2024-01-07T06:19:21;7.43;;;6.73;;
12407;SDS011;6268;48.188;17.134;2024-01-07T06:21:50;7.40;;;6.70;;
12407;SDS011;6268;48.188;17.134;2024-01-07T06:24:19;7.20;;;6.40;;
12407;SDS011;6268;48.188;17.134;2024-01-07T06:26:49;8.30;;;6.70;;
12407;SDS011;6268;48.188;17.134;2024-01-07T06:29:17;8.03;;;6.70;;
12407;SDS011;6268;48.188;17.134;2024-01-07T06:31:46;7.73;;;6.87;;
12407;SDS011;6268;48.188;17.134;2024-01-07T06:34:15;8.60;;;6.77;;
12407;SDS011;6268;48.188;17.134;2024-01-07T06:36:44;7.33;;;6.63;;
12407;SDS011;6268;48.188;17.134;2024-01-07T06:39:13;7.87;;;6.47;;
12407;SDS011;6268;48.188;17.134;2024-01-07T06:41:41;7.67;;;6.73;;
12407;SDS011;6268;48.188;17.134;2024-01-07T06:44:11;6.40;;;5.80;;
12407;SDS011;6268;48.188;17.134;2024-01-07T06:46:40;7.70;;;6.40;;
12407;SDS011;6268;48.188;17.134;2024-01-07T06:49:08;6.27;;;5.60;;
12407;SDS011;6268;48.188;17.134;2024-01-07T06:51:37;6.83;;;6.13;;
12407;SDS011;6268;48.188;17.134;2024-01-07T06:54:06;6.80;;;6.10;;
12407;SDS011;6268;48.188;17.134;2024-01-07T06:56:39;8.00;;;6.40;;
12407;SDS011;6268;48.188;17.134;2024-01-07T06:59:07;8.00;;;6.33;;
12407;SDS011;6268;48.188;17.134;2024-01-07T07:01:38;6.77;;;5.93;;
12407;SDS011;6268;48.188;17.134;2024-01-07T07:04:07;6.37;;;5.77;;
12407;SDS011;6268;48.188;17.134;2024-01-07T07:06:36;7.23;;;6.53;;
12407;SDS011;6268;48.188;17.134;2024-01-07T07:09:05;6.23;;;5.63;;
12407;SDS011;6268;48.188;17.134;2024-01-07T07:11:33;8.37;;;6.40;;
12407;SDS011;6268;48.188;17.134;2024-01-07T07:14:02;6.30;;;5.70;;
12407;SDS011;6268;48.188;17.134;2024-01-07T07:16:30;6.87;;;6.03;;
12407;SDS011;6268;48.188;17.134;2024-01-07T07:19:02;9.60;;;5.47;;
12407;SDS011;6268;48.188;17.134;2024-01-07T07:21:31;7.90;;;5.80;;
12407;SDS011;6268;48.188;17.134;2024-01-07T07:23:59;7.43;;;6.70;;
12407;SDS011;6268;48.188;17.134;2024-01-07T07:26:28;8.07;;;6.57;;
12407;SDS011;6268;48.188;17.134;2024-01-07T07:28:57;7.87;;;6.83;;
12407;SDS011;6268;48.188;17.134;2024-01-07T07:31:26;7.97;;;6.57;;
12407;SDS011;6268;48.188;17.134;2024-01-07T07:33:55;9.13;;;6.47;;
12407;SDS011;6268;48.188;17.134;2024-01-07T07:36:25;6.93;;;5.87;;
12407;SDS011;6268;48.188;17.134;2024-01-07T07:38:54;9.13;;;7.00;;
12407;SDS011;6268;48.188;17.134;2024-01-07T07:41:23;8.50;;;6.40;;
12407;SDS011;6268;48.188;17.134;2024-01-07T07:43:51;6.83;;;5.50;;
12407;SDS011;6268;48.188;17.134;2024-01-07T07:46:21;6.80;;;5.73;;
12407;SDS011;6268;48.188;17.134;2024-01-07T07:48:53;8.00;;;6.00;;
12407;SDS011;6268;48.188;17.134;2024-01-07T07:51:21;5.97;;;5.40;;
12407;SDS011;6268;48.188;17.134;2024-01-07T07:53:51;7.10;;;5.63;;
12407;SDS011;6268;48.188;17.134;2024-01-07T07:56:20;6.43;;;5.63;;
12407;SDS011;6268;48.188;17.134;2024-01-07T07:58:48;7.03;;;5.40;;
12407;SDS011;6268;48.188;17.134;2024-01-07T08:01:17;10.80;;;8.13;;
12407;SDS011;6268;48.188;17.134;2024-01-07T08:03:46;5.63;;;5.07;;
12407;SDS011;6268;48.188;17.134;2024-01-07T08:06:15;6.20;;;4.80;;
12407;SDS011;6268;48.188;17.134;2024-01-07T08:08:44;6.37;;;5.03;;
12407;SDS011;6268;48.188;17.134;2024-01-07T08:11:14;5.23;;;4.70;;
12407;SDS011;6268;48.188;17.134;2024-01-07T08:13:42;5.07;;;4.57;;
12407;SDS011;6268;48.188;17.134;2024-01-07T08:16:11;5.40;;;4.90;;
12407;SDS011;6268;48.188;17.134;2024-01-07T08:18:39;6.73;;;5.43;;
12407;SDS011;6268;48.188;17.134;2024-01-07T08:21:09;6.30;;;5.70;;
12407;SDS011;6268;48.188;17.134;2024-01-07T08:23:38;5.17;;;4.77;;
12407;SDS011;6268;48.188;17.134;2024-01-07T08:26:07;5.57;;;5.07;;
12407;SDS011;6268;48.188;17.134;2024-01-07T08:28:37;5.13;;;4.67;;
12407;SDS011;6268;48.188;17.134;2024-01-07T08:31:05;5.00;;;4.50;;
12407;SDS011;6268;48.188;17.134;2024-01-07T08:33:34;5.93;;;5.10;;
12407;SDS011;6268;48.188;17.134;2024-01-07T08:36:05;5.30;;;4.53;;
12407;SDS011;6268;48.188;17.134;2024-01-07T08:38:35;5.33;;;4.47;;
12407;SDS011;6268;48.188;17.134;2024-01-07T08:41:04;4.93;;;4.47;;
12407;SDS011;6268;48.188;17.134;2024-01-07T08:43:32;4.50;;;4.10;;
12407;SDS011;6268;48.188;17.134;2024-01-07T08:46:03;6.03;;;4.00;;
12407;SDS011;6268;48.188;17.134;2024-01-07T08:48:32;5.23;;;4.60;;
12407;SDS011;6268;48.188;17.134;2024-01-07T08:51:01;7.43;;;5.50;;
12407;SDS011;6268;48.188;17.134;2024-01-07T08:53:30;9.07;;;6.50;;
12407;SDS011;6268;48.188;17.134;2024-01-07T08:55:59;5.40;;;4.90;;
12407;SDS011;6268;48.188;17.134;2024-01-07T08:58:28;6.73;;;4.87;;
12407;SDS011;6268;48.188;17.134;2024-01-07T09:00:56;5.53;;;4.37;;
12407;SDS011;6268;48.188;17.134;2024-01-07T09:03:27;4.67;;;3.93;;
12407;SDS011;6268;48.188;17.134;2024-01-07T09:05:55;4.60;;;4.00;;
12407;SDS011;6268;48.188;17.134;2024-01-07T09:08:24;5.07;;;3.90;;
12407;SDS011;6268;48.188;17.134;2024-01-07T09:10:53;5.27;;;4.23;;
12407;SDS011;6268;48.188;17.134;2024-01-07T09:13:21;4.60;;;3.93;;
12407;SDS011;6268;48.188;17.134;2024-01-07T09:15:50;4.70;;;4.30;;
12407;SDS011;6268;48.188;17.134;2024-01-07T09:18:19;4.53;;;4.13;;
12407;SDS011;6268;48.188;17.134;2024-01-07T09:20:49;6.07;;;4.10;;
12407;SDS011;6268;48.188;17.134;2024-01-07T09:23:18;4.23;;;3.83;;
12407;SDS011;6268;48.188;17.134;2024-01-07T09:25:46;9.60;;;6.33;;
12407;SDS011;6268;48.188;17.134;2024-01-07T09:28:15;9.27;;;6.10;;
12407;SDS011;6268;48.188;17.134;2024-01-07T09:30:44;12.03;;;10.07;;
12407;SDS011;6268;48.188;17.134;2024-01-07T09:33:13;4.87;;;4.37;;
12407;SDS011;6268;48.188;17.134;2024-01-07T09:35:42;4.23;;;3.83;;
12407;SDS011;6268;48.188;17.134;2024-01-07T09:38:12;4.60;;;3.60;;
12407;SDS011;6268;48.188;17.134;2024-01-07T09:40:42;4.47;;;4.00;;
12407;SDS011;6268;48.188;17.134;2024-01-07T09:43:11;4.00;;;3.60;;
12407;SDS011;6268;48.188;17.134;2024-01-07T09:45:41;3.60;;;3.30;;
12407;SDS011;6268;48.188;17.134;2024-01-07T09:48:13;5.37;;;4.87;;
12407;SDS011;6268;48.188;17.134;2024-01-07T09:50:42;6.93;;;5.27;;
12407;SDS011;6268;48.188;17.134;2024-01-07T09:53:15;6.37;;;4.30;;
12407;SDS011;6268;48.188;17.134;2024-01-07T09:55:47;5.10;;;4.03;;
12407;SDS011;6268;48.188;17.134;2024-01-07T09:58:23;4.93;;;4.30;;
12407;SDS011;6268;48.188;17.134;2024-01-07T10:00:52;4.47;;;4.07;;
12407;SDS011;6268;48.188;17.134;2024-01-07T10:03:22;4.80;;;4.30;;
12407;SDS011;6268;48.188;17.134;2024-01-07T10:05:51;4.17;;;3.77;;
12407;SDS011;6268;48.188;17.134;2024-01-07T10:08:25;6.20;;;4.33;;
12407;SDS011;6268;48.188;17.134;2024-01-07T10:10:57;4.17;;;3.53;;
12407;SDS011;6268;48.188;17.134;2024-01-07T10:13:25;5.37;;;4.43;;
12407;SDS011;6268;48.188;17.134;2024-01-07T10:15:54;4.03;;;3.73;;
12407;SDS011;6268;48.188;17.134;2024-01-07T10:18:23;4.70;;;4.30;;
12407;SDS011;6268;48.188;17.134;2024-01-07T10:20:53;9.37;;;4.37;;
12407;SDS011;6268;48.188;17.134;2024-01-07T10:23:22;7.20;;;4.77;;
12407;SDS011;6268;48.188;17.134;2024-01-07T10:25:52;5.80;;;4.43;;
12407;SDS011;6268;48.188;17.134;2024-01-07T10:28:25;5.30;;;4.30;;
12407;SDS011;6268;48.188;17.134;2024-01-07T10:30:54;4.27;;;3.87;;
12407;SDS011;6268;48.188;17.134;2024-01-07T10:33:30;5.47;;;4.33;;
12407;SDS011;6268;48.188;17.134;2024-01-07T10:36:01;4.67;;;4.23;;
12407;SDS011;6268;48.188;17.134;2024-01-07T10:38:34;6.37;;;4.33;;
12407;SDS011;6268;48.188;17.134;2024-01-07T10:41:10;4.67;;;3.73;;
12407;SDS011;6268;48.188;17.134;2024-01-07T10:43:39;5.77;;;4.60;;
12407;SDS011;6268;48.188;17.134;2024-01-07T10:46:09;5.30;;;4.13;;
12407;SDS011;6268;48.188;17.134;2024-01-07T10:48:39;4.67;;;3.87;;
12407;SDS011;6268;48.188;17.134;2024-01-07T10:51:16;14.17;;;8.93;;
12407;SDS011;6268;48.188;17.134;2024-01-07T10:53:50;7.63;;;5.37;;
12407;SDS011;6268;48.188;17.134;2024-01-07T10:56:23;6.93;;;5.83;;
12407;SDS011;6268;48.188;17.134;2024-01-07T10:58:53;9.23;;;5.83;;
12407;SDS011;6268;48.188;17.134;2024-01-07T11:01:23;5.33;;;3.87;;
12407;SDS011;6268;48.188;17.134;2024-01-07T11:03:55;5.90;;;4.77;;
12407;SDS011;6268;48.188;17.134;2024-01-07T11:06:31;6.93;;;4.60;;
12407;SDS011;6268;48.188;17.134;2024-01-07T11:09:06;5.73;;;5.00;;
12407;SDS011;6268;48.188;17.134;2024-01-07T11:11:46;5.70;;;4.47;;
12407;SDS011;6268;48.188;17.134;2024-01-07T11:14:34;6.37;;;4.27;;
12407;SDS011;6268;48.188;17.134;2024-01-07T11:17:06;4.93;;;4.23;;
12407;SDS011;6268;48.188;17.134;2024-01-07T11:19:35;6.67;;;4.93;;
12407;SDS011;6268;48.188;17.134;2024-01-07T11:22:23;6.07;;;4.70;;
12407;SDS011;6268;48.188;17.134;2024-01-07T11:24:55;5.03;;;4.40;;
12407;SDS011;6268;48.188;17.134;2024-01-07T11:27:29;4.37;;;3.87;;
12407;SDS011;6268;48.188;17.134;2024-01-07T11:30:01;5.37;;;4.07;;
12407;SDS011;6268;48.188;17.134;2024-01-07T11:32:32;4.77;;;4.20;;
12407;SDS011;6268;48.188;17.134;2024-01-07T11:35:02;6.23;;;4.50;;
12407;SDS011;6268;48.188;17.134;2024-01-07T11:37:31;5.23;;;4.27;;
12407;SDS011;6268;48.188;17.134;2024-01-07T11:40:02;6.83;;;5.07;;
12407;SDS011;6268;48.188;17.134;2024-01-07T11:42:34;9.87;;;6.37;;
12407;SDS011;6268;48.188;17.134;2024-01-07T11:45:03;4.73;;;4.23;;
12407;SDS011;6268;48.188;17.134;2024-01-07T11:47:32;5.60;;;5.10;;
12407;SDS011;6268;48.188;17.134;2024-01-07T11:50:01;9.27;;;5.07;;
12407;SDS011;6268;48.188;17.134;2024-01-07T11:52:31;6.43;;;4.43;;
12407;SDS011;6268;48.188;17.134;2024-01-07T11:55:03;5.37;;;4.50;;
12407;SDS011;6268;48.188;17.134;2024-01-07T11:57:34;4.97;;;4.33;;
12407;SDS011;6268;48.188;17.134;2024-01-07T12:00:03;6.80;;;4.60;;
12407;SDS011;6268;48.188;17.134;2024-01-07T12:02:33;5.80;;;4.40;;
12407;SDS011;6268;48.188;17.134;2024-01-07T12:05:02;4.73;;;4.23;;
12407;SDS011;6268;48.188;17.134;2024-01-07T12:07:31;4.77;;;4.37;;
12407;SDS011;6268;48.188;17.134;2024-01-07T12:09:59;4.57;;;4.17;;
12407;SDS011;6268;48.188;17.134;2024-01-07T12:12:28;6.40;;;4.67;;
12407;SDS011;6268;48.188;17.134;2024-01-07T12:14:58;7.93;;;4.97;;
12407;SDS011;6268;48.188;17.134;2024-01-07T12:17:27;4.90;;;4.50;;
12407;SDS011;6268;48.188;17.134;2024-01-07T12:19:56;6.47;;;4.37;;
12407;SDS011;6268;48.188;17.134;2024-01-07T12:22:26;4.87;;;4.37;;
12407;SDS011;6268;48.188;17.134;2024-01-07T12:25:01;4.97;;;4.40;;
12407;SDS011;6268;48.188;17.134;2024-01-07T12:27:30;5.17;;;4.67;;
12407;SDS011;6268;48.188;17.134;2024-01-07T12:30:00;7.20;;;4.87;;
12407;SDS011;6268;48.188;17.134;2024-01-07T12:32:29;5.40;;;4.90;;
12407;SDS011;6268;48.188;17.134;2024-01-07T12:34:59;5.47;;;4.90;;
12407;SDS011;6268;48.188;17.134;2024-01-07T12:37:28;5.47;;;4.67;;
12407;SDS011;6268;48.188;17.134;2024-01-07T12:39:57;6.87;;;4.73;;
12407;SDS011;6268;48.188;17.134;2024-01-07T12:42:26;5.87;;;4.60;;
12407;SDS011;6268;48.188;17.134;2024-01-07T12:44:55;4.90;;;4.40;;
12407;SDS011;6268;48.188;17.134;2024-01-07T12:47:25;6.03;;;5.13;;
12407;SDS011;6268;48.188;17.134;2024-01-07T12:49:53;5.57;;;4.77;;
12407;SDS011;6268;48.188;17.134;2024-01-07T12:52:22;8.37;;;5.37;;
12407;SDS011;6268;48.188;17.134;2024-01-07T12:54:50;6.17;;;4.73;;
12407;SDS011;6268;48.188;17.134;2024-01-07T12:57:19;5.23;;;4.53;;
12407;SDS011;6268;48.188;17.134;2024-01-07T12:59:50;6.97;;;4.80;;
12407;SDS011;6268;48.188;17.134;2024-01-07T13:02:19;8.20;;;5.50;;
12407;SDS011;6268;48.188;17.134;2024-01-07T13:04:49;6.53;;;4.93;;
12407;SDS011;6268;48.188;17.134;2024-01-07T13:07:18;5.83;;;4.77;;
12407;SDS011;6268;48.188;17.134;2024-01-07T13:09:47;7.20;;;4.80;;
12407;SDS011;6268;48.188;17.134;2024-01-07T13:12:15;5.87;;;4.97;;
12407;SDS011;6268;48.188;17.134;2024-01-07T13:14:44;8.17;;;5.33;;
12407;SDS011;6268;48.188;17.134;2024-01-07T13:17:14;6.67;;;5.57;;
12407;SDS011;6268;48.188;17.134;2024-01-07T13:19:43;9.30;;;6.40;;
12407;SDS011;6268;48.188;17.134;2024-01-07T13:22:14;6.90;;;5.83;;
12407;SDS011;6268;48.188;17.134;2024-01-07T13:24:43;8.07;;;5.23;;
12407;SDS011;6268;48.188;17.134;2024-01-07T13:27:11;8.37;;;5.60;;
12407;SDS011;6268;48.188;17.134;2024-01-07T13:29:40;8.23;;;5.83;;
12407;SDS011;6268;48.188;17.134;2024-01-07T13:32:09;7.33;;;5.53;;
12407;SDS011;6268;48.188;17.134;2024-01-07T13:34:37;8.43;;;6.13;;
12407;SDS011;6268;48.188;17.134;2024-01-07T13:37:06;6.40;;;5.43;;
12407;SDS011;6268;48.188;17.134;2024-01-07T13:39:37;7.13;;;6.03;;
12407;SDS011;6268;48.188;17.134;2024-01-07T13:42:06;7.70;;;5.57;;
12407;SDS011;6268;48.188;17.134;2024-01-07T13:44:34;8.23;;;6.57;;
12407;SDS011;6268;48.188;17.134;2024-01-07T13:47:11;7.27;;;6.10;;
12407;SDS011;6268;48.188;17.134;2024-01-07T13:49:41;7.30;;;6.07;;
12407;SDS011;6268;48.188;17.134;2024-01-07T13:52:09;7.53;;;6.53;;
12407;SDS011;6268;48.188;17.134;2024-01-07T13:54:42;7.80;;;6.57;;
12407;SDS011;6268;48.188;17.134;2024-01-07T13:57:11;8.20;;;7.10;;
12407;SDS011;6268;48.188;17.134;2024-01-07T13:59:40;8.43;;;6.47;;
12407;SDS011;6268;48.188;17.134;2024-01-07T14:02:09;9.40;;;6.70;;
12407;SDS011;6268;48.188;17.134;2024-01-07T14:04:37;9.50;;;7.83;;
12407;SDS011;6268;48.188;17.134;2024-01-07T14:07:06;8.50;;;6.80;;
12407;SDS011;6268;48.188;17.134;2024-01-07T14:09:35;7.87;;;6.07;;
12407;SDS011;6268;48.188;17.134;2024-01-07T14:12:05;9.57;;;7.13;;
12407;SDS011;6268;48.188;17.134;2024-01-07T14:14:34;9.73;;;6.40;;
12407;SDS011;6268;48.188;17.134;2024-01-07T14:17:03;9.63;;;6.80;;
12407;SDS011;6268;48.188;17.134;2024-01-07T14:19:31;7.67;;;6.60;;
12407;SDS011;6268;48.188;17.134;2024-01-07T14:22:01;9.07;;;6.80;;
12407;SDS011;6268;48.188;17.134;2024-01-07T14:24:29;10.03;;;6.83;;
12407;SDS011;6268;48.188;17.134;2024-01-07T14:26:58;10.23;;;7.37;;
12407;SDS011;6268;48.188;17.134;2024-01-07T14:29:28;9.20;;;6.43;;
12407;SDS011;6268;48.188;17.134;2024-01-07T14:31:57;8.90;;;7.23;;
12407;SDS011;6268;48.188;17.134;2024-01-07T14:34:25;12.03;;;7.43;;
12407;SDS011;6268;48.188;17.134;2024-01-07T14:36:54;7.40;;;6.70;;
12407;SDS011;6268;48.188;17.134;2024-01-07T14:39:23;9.27;;;7.37;;
12407;SDS011;6268;48.188;17.134;2024-01-07T14:41:52;9.73;;;7.83;;
12407;SDS011;6268;48.188;17.134;2024-01-07T14:44:21;10.77;;;8.33;;
12407;SDS011;6268;48.188;17.134;2024-01-07T14:47:07;10.43;;;7.50;;
12407;SDS011;6268;48.188;17.134;2024-01-07T14:49:35;8.60;;;6.83;;
12407;SDS011;6268;48.188;17.134;2024-01-07T14:52:04;10.27;;;7.73;;
12407;SDS011;6268;48.188;17.134;2024-01-07T14:54:33;8.90;;;6.40;;
12407;SDS011;6268;48.188;17.134;2024-01-07T14:57:04;10.50;;;8.17;;
12407;SDS011;6268;48.188;17.134;2024-01-07T14:59:35;11.30;;;7.67;;
12407;SDS011;6268;48.188;17.134;2024-01-07T15:02:04;9.17;;;7.60;;